createdAt,value
2018-06-03T00:00:33.935Z,95536.36
2018-06-03T00:03:02.571Z,95529.00
2018-06-03T00:05:31.295Z,95537.70
2018-06-03T00:07:59.936Z,95543.61
2018-06-03T00:10:28.637Z,95536.70
2018-06-03T00:12:57.302Z,95534.48
2018-06-03T00:15:25.919Z,95530.25
2018-06-03T00:17:54.559Z,95528.62
2018-06-03T00:20:35.994Z,95528.66
2018-06-03T00:23:04.665Z,95524.39
2018-06-03T00:25:33.258Z,95524.69
2018-06-03T00:28:01.862Z,95525.73
2018-06-03T00:30:30.506Z,95390.17
2018-06-03T00:32:59.155Z,95528.30
2018-06-03T00:35:28.317Z,95532.48
2018-06-03T00:37:56.987Z,95535.05
2018-06-03T00:40:25.675Z,95543.55
2018-06-03T00:42:54.410Z,95536.79
2018-06-03T00:45:23.063Z,95528.31
2018-06-03T00:47:51.703Z,95533.68
2018-06-03T00:50:20.330Z,95529.29
2018-06-03T00:52:49.035Z,95532.73
2018-06-03T00:55:17.648Z,95529.22
2018-06-03T00:57:46.270Z,95526.27
2018-06-03T01:00:14.959Z,95525.41
2018-06-03T01:02:43.581Z,95522.48
2018-06-03T01:05:12.182Z,95515.98
2018-06-03T01:07:40.937Z,95520.53
2018-06-03T01:10:09.608Z,95523.56
2018-06-03T01:12:38.221Z,95521.73
2018-06-03T01:15:06.990Z,95518.37
2018-06-03T01:17:35.618Z,95523.41
2018-06-03T01:20:04.285Z,95528.52
2018-06-03T01:22:32.947Z,95529.67
2018-06-03T01:25:01.613Z,95528.75
2018-06-03T01:27:30.218Z,95528.74
2018-06-03T01:29:58.908Z,95534.81
2018-06-03T01:32:27.575Z,95523.67
2018-06-03T01:34:56.401Z,95487.40
2018-06-03T01:37:25.038Z,95527.13
2018-06-03T01:39:53.778Z,95534.15
2018-06-03T01:42:22.801Z,95524.48
2018-06-03T01:44:51.490Z,95518.05
2018-06-03T01:47:20.121Z,95526.78
2018-06-03T01:49:48.774Z,95528.34
2018-06-03T01:52:17.434Z,95520.84
2018-06-03T01:54:46.082Z,95519.62
2018-06-03T01:57:14.734Z,95521.25
2018-06-03T01:59:43.491Z,95523.78
2018-06-03T02:02:12.134Z,95513.47
2018-06-03T02:04:40.798Z,95520.34
2018-06-03T02:07:09.437Z,95523.78
2018-06-03T02:09:38.071Z,95516.56
2018-06-03T02:12:06.770Z,95519.47
2018-06-03T02:14:35.401Z,95517.17
2018-06-03T02:17:04.140Z,95517.46
2018-06-03T02:19:32.773Z,95527.91
2018-06-03T02:22:01.363Z,95516.41
2018-06-03T02:24:29.952Z,95519.05
2018-06-03T02:26:58.668Z,95520.18
2018-06-03T02:29:27.365Z,95518.40
2018-06-03T02:31:56.463Z,95518.34
2018-06-03T02:34:39.818Z,95528.20
2018-06-03T02:37:08.684Z,95526.30
2018-06-03T02:39:37.408Z,95521.11
2018-06-03T02:42:06.081Z,95525.50
2018-06-03T02:44:34.849Z,95521.69
2018-06-03T02:47:03.567Z,95531.29
2018-06-03T02:49:32.245Z,95522.48
2018-06-03T02:52:00.969Z,95517.32
2018-06-03T02:54:29.684Z,95517.96
2018-06-03T02:56:58.337Z,95531.86
2018-06-03T02:59:26.966Z,95531.05
2018-06-03T03:01:55.634Z,95524.38
2018-06-03T03:04:24.331Z,95523.28
2018-06-03T03:06:52.964Z,95524.11
2018-06-03T03:09:21.647Z,95523.98
2018-06-03T03:11:50.285Z,95522.91
2018-06-03T03:14:18.988Z,95529.08
2018-06-03T03:16:47.618Z,95531.29
2018-06-03T03:19:16.350Z,95524.34
2018-06-03T03:21:44.997Z,95514.26
2018-06-03T03:24:13.677Z,95521.83
2018-06-03T03:26:42.290Z,95523.27
2018-06-03T03:29:10.929Z,95527.34
2018-06-03T03:31:39.576Z,95517.41
2018-06-03T03:34:08.235Z,95518.55
2018-06-03T03:36:36.943Z,95512.76
2018-06-03T03:39:06.898Z,95518.09
2018-06-03T03:41:35.554Z,95515.59
2018-06-03T03:44:04.243Z,95522.30
2018-06-03T03:46:32.855Z,95517.90
2018-06-03T03:49:01.501Z,95526.93
2018-06-03T03:51:30.155Z,95524.19
2018-06-03T03:53:58.799Z,95527.32
2018-06-03T03:56:27.448Z,95522.62
2018-06-03T03:58:56.060Z,95518.83
2018-06-03T04:01:24.703Z,95293.73
2018-06-03T04:03:53.335Z,95516.09
2018-06-03T04:06:21.971Z,95511.56
2018-06-03T04:08:50.678Z,95515.72
2018-06-03T04:11:19.341Z,95518.13
2018-06-03T04:13:48.010Z,95527.72
2018-06-03T04:16:16.652Z,95529.61
2018-06-03T04:18:45.290Z,95533.96
2018-06-03T04:21:14.034Z,95532.09
2018-06-03T04:23:42.640Z,95541.21
2018-06-03T04:26:11.379Z,95532.09
2018-06-03T04:28:40.012Z,95525.38
2018-06-03T04:31:08.676Z,95530.87
2018-06-03T04:33:37.336Z,95524.27
2018-06-03T04:36:06.011Z,95530.49
2018-06-03T04:38:34.647Z,95522.75
2018-06-03T04:41:03.387Z,95523.56
2018-06-03T04:43:32.051Z,95527.52
2018-06-03T04:46:00.773Z,95530.80
2018-06-03T04:48:29.474Z,95524.27
2018-06-03T04:50:58.106Z,95536.22
2018-06-03T04:53:26.778Z,95527.52
2018-06-03T04:55:55.401Z,95526.45
2018-06-03T04:58:24.040Z,95530.20
2018-06-03T05:00:52.717Z,95533.53
2018-06-03T05:03:21.344Z,95535.22
2018-06-03T05:05:49.973Z,95525.92
2018-06-03T05:08:18.654Z,95529.11
2018-06-03T05:10:47.312Z,95529.52
2018-06-03T05:13:15.991Z,95531.00
2018-06-03T05:15:44.656Z,95531.22
2018-06-03T05:18:13.334Z,95538.20
2018-06-03T05:20:42.011Z,95542.51
2018-06-03T05:23:10.711Z,95533.91
2018-06-03T05:25:39.464Z,95530.37
2018-06-03T05:28:08.134Z,95530.09
2018-06-03T05:30:36.856Z,95531.30
2018-06-03T05:33:05.555Z,95529.34
2018-06-03T05:35:34.318Z,95532.77
2018-06-03T05:38:03.694Z,95534.46
2018-06-03T05:40:32.375Z,95529.17
2018-06-03T05:43:01.041Z,95524.30
2018-06-03T05:45:29.674Z,95535.99
2018-06-03T05:47:58.330Z,95537.32
2018-06-03T05:50:27.104Z,95534.84
2018-06-03T05:52:55.786Z,95541.27
2018-06-03T05:55:25.354Z,95537.74
2018-06-03T05:57:53.974Z,95539.93
2018-06-03T06:00:22.625Z,95541.38
2018-06-03T06:02:51.253Z,95534.82
2018-06-03T06:05:19.949Z,95536.39
2018-06-03T06:07:48.574Z,95544.17
2018-06-03T06:10:17.224Z,95540.83
2018-06-03T06:12:45.853Z,95541.41
2018-06-03T06:15:14.603Z,95532.42
2018-06-03T06:17:43.325Z,95534.69
2018-06-03T06:20:12.284Z,95539.31
2018-06-03T06:22:40.899Z,95543.70
2018-06-03T06:25:09.555Z,95544.01
2018-06-03T06:27:38.246Z,95542.27
2018-06-03T06:30:06.950Z,95537.16
2018-06-03T06:32:35.619Z,95541.63
2018-06-03T06:35:04.293Z,95534.23
2018-06-03T06:37:32.958Z,95530.92
2018-06-03T06:40:01.601Z,95529.13
2018-06-03T06:42:30.243Z,95519.18
2018-06-03T06:44:58.935Z,95519.42
2018-06-03T06:47:27.551Z,95519.87
2018-06-03T06:49:56.179Z,95528.59
2018-06-03T06:52:24.818Z,95528.48
2018-06-03T06:54:53.504Z,95525.22
2018-06-03T06:57:22.166Z,95524.00
2018-06-03T06:59:51.056Z,95519.70
2018-06-03T07:02:19.726Z,95516.93
2018-06-03T07:04:52.249Z,95526.46
2018-06-03T07:07:21.065Z,95518.77
2018-06-03T07:09:49.738Z,95516.16
2018-06-03T07:12:18.439Z,95521.78
2018-06-03T07:14:47.160Z,95521.35
2018-06-03T07:17:15.870Z,95513.16
2018-06-03T07:19:44.643Z,95511.31
2018-06-03T07:22:13.270Z,95513.48
2018-06-03T07:24:42.223Z,95506.61
2018-06-03T07:27:10.835Z,95512.03
2018-06-03T07:29:39.534Z,95503.19
2018-06-03T07:32:08.208Z,95507.86
2018-06-03T07:34:36.859Z,95505.38
2018-06-03T07:37:05.548Z,95510.81
2018-06-03T07:39:34.260Z,95510.28
2018-06-03T07:42:03.065Z,95505.55
2018-06-03T07:44:32.375Z,95502.11
2018-06-03T07:47:01.293Z,95508.86
2018-06-03T07:49:30.012Z,95509.24
2018-06-03T07:51:58.692Z,95503.17
2018-06-03T07:54:27.361Z,95503.83
2018-06-03T07:56:56.056Z,95492.30
2018-06-03T07:59:25.065Z,95497.61
2018-06-03T08:01:53.728Z,95494.99
2018-06-03T08:04:22.397Z,95498.16
2018-06-03T08:06:51.057Z,95488.17
2018-06-03T08:09:19.710Z,95494.00
2018-06-03T08:11:48.752Z,95486.93
2018-06-03T08:14:17.495Z,95487.71
2018-06-03T08:16:46.170Z,95477.77
2018-06-03T08:19:15.155Z,95476.95
2018-06-03T08:21:43.957Z,95476.88
2018-06-03T08:24:13.569Z,95475.18
2018-06-03T08:26:44.462Z,95470.06
2018-06-03T08:29:13.258Z,95474.09
2018-06-03T08:31:42.277Z,95471.27
2018-06-03T08:34:10.929Z,95464.52
2018-06-03T08:36:39.603Z,95463.95
2018-06-03T08:39:08.379Z,95462.64
2018-06-03T08:41:37.238Z,95453.96
2018-06-03T08:44:06.321Z,95451.56
2018-06-03T08:46:35.291Z,95443.81
2018-06-03T08:49:03.923Z,95448.15
2018-06-03T08:51:32.757Z,95441.91
2018-06-03T08:54:02.455Z,95444.44
2018-06-03T08:56:31.138Z,95437.61
2018-06-03T08:59:00.202Z,95434.81
2018-06-03T09:01:29.596Z,95421.03
2018-06-03T09:03:58.314Z,95424.55
2018-06-03T09:06:27.383Z,95425.38
2018-06-03T09:08:56.868Z,95421.70
2018-06-03T09:11:25.946Z,95424.52
2018-06-03T09:13:54.635Z,95419.59
2018-06-03T09:16:23.986Z,95420.67
2018-06-03T09:18:52.814Z,95418.08
2018-06-03T09:21:21.493Z,95416.56
2018-06-03T09:23:50.198Z,95413.67
2018-06-03T09:26:19.264Z,95407.58
2018-06-03T09:28:47.967Z,95394.55
2018-06-03T09:31:16.609Z,95405.21
2018-06-03T09:33:45.291Z,95402.41
2018-06-03T09:36:13.890Z,95403.81
2018-06-03T09:38:42.567Z,95392.95
2018-06-03T09:41:11.209Z,95393.77
2018-06-03T09:43:39.906Z,95391.16
2018-06-03T09:46:08.583Z,95388.21
2018-06-03T09:48:37.195Z,95385.66
2018-06-03T09:51:05.834Z,95377.97
2018-06-03T09:53:34.675Z,95378.25
2018-06-03T09:56:03.391Z,95378.32
2018-06-03T09:58:51.377Z,95378.38
2018-06-03T10:01:20.081Z,95373.77
2018-06-03T10:03:48.786Z,95353.94
2018-06-03T10:06:17.531Z,95360.89
2018-06-03T10:08:46.242Z,95366.86
2018-06-03T10:11:14.960Z,95376.13
2018-06-03T10:13:43.604Z,95368.14
2018-06-03T10:16:12.361Z,95361.17
2018-06-03T10:19:27.156Z,95363.94
2018-06-03T10:21:55.963Z,95359.77
2018-06-03T10:24:24.602Z,95361.17
2018-06-03T10:26:53.402Z,95355.73
2018-06-03T10:29:22.096Z,95358.41
2018-06-03T10:31:50.722Z,95350.19
2018-06-03T10:34:19.419Z,95340.20
2018-06-03T10:36:48.079Z,95340.91
2018-06-03T10:39:17.967Z,95348.80
2018-06-03T10:41:46.656Z,95349.10
2018-06-03T10:44:15.279Z,95349.14
2018-06-03T10:46:44.302Z,95341.91
2018-06-03T10:49:16.506Z,95342.11
2018-06-03T10:51:45.145Z,95349.16
2018-06-03T10:54:15.240Z,95351.84
2018-06-03T10:56:45.660Z,95355.90
2018-06-03T10:59:14.371Z,95367.15
2018-06-03T11:01:43.027Z,95368.25
2018-06-03T11:04:11.678Z,95362.61
2018-06-03T11:06:40.335Z,95359.00
2018-06-03T11:09:09.062Z,95359.53
2018-06-03T11:11:37.768Z,95356.44
2018-06-03T11:14:06.507Z,95343.87
2018-06-03T11:16:35.198Z,95345.42
2018-06-03T11:19:03.879Z,95353.66
2018-06-03T11:21:32.554Z,95350.16
2018-06-03T11:24:01.255Z,95355.70
2018-06-03T11:26:30.003Z,95354.78
2018-06-03T11:28:58.621Z,95348.38
2018-06-03T11:31:27.327Z,95350.31
2018-06-03T11:33:55.965Z,95348.06
2018-06-03T11:36:24.637Z,95352.02
2018-06-03T11:38:53.522Z,95342.16
2018-06-03T11:41:23.444Z,95348.52
2018-06-03T11:43:52.066Z,95353.88
2018-06-03T11:46:20.741Z,95350.70
2018-06-03T11:48:49.379Z,95353.02
2018-06-03T11:51:18.034Z,95352.67
2018-06-03T11:53:46.737Z,95344.91
2018-06-03T11:56:15.338Z,95347.81
2018-06-03T11:58:59.759Z,95342.16
2018-06-03T12:01:28.711Z,95338.00
2018-06-03T12:03:57.398Z,95333.72
2018-06-03T12:06:26.013Z,95323.46
2018-06-03T12:08:54.667Z,95321.11
2018-06-03T12:11:23.283Z,95309.24
2018-06-03T12:13:51.950Z,95311.11
2018-06-03T12:16:20.866Z,95307.87
2018-06-03T12:18:49.854Z,95304.86
2018-06-03T12:21:18.480Z,95301.23
2018-06-03T12:23:47.213Z,95303.78
2018-06-03T12:26:15.871Z,95317.77
2018-06-03T12:28:44.554Z,95317.92
2018-06-03T12:31:13.168Z,95302.54
2018-06-03T12:33:41.825Z,95305.81
2018-06-03T12:36:10.491Z,95313.89
2018-06-03T12:38:39.166Z,95310.97
2018-06-03T12:41:07.795Z,95306.74
2018-06-03T12:43:36.449Z,95298.87
2018-06-03T12:46:06.365Z,95295.22
2018-06-03T12:48:34.999Z,95294.05
2018-06-03T12:51:03.660Z,95281.91
2018-06-03T12:53:32.387Z,95279.63
2018-06-03T12:56:01.011Z,95270.05
2018-06-03T12:58:29.773Z,95243.72
2018-06-03T13:00:58.459Z,95270.80
2018-06-03T13:03:27.158Z,95265.97
2018-06-03T13:05:55.787Z,95287.78
2018-06-03T13:08:25.352Z,95296.13
2018-06-03T13:10:54.006Z,95302.55
2018-06-03T13:13:23.660Z,95301.36
2018-06-03T13:15:52.321Z,95300.48
2018-06-03T13:18:21.006Z,95310.82
2018-06-03T13:20:49.659Z,95317.66
2018-06-03T13:23:18.377Z,95306.98
2018-06-03T13:25:47.016Z,95305.59
2018-06-03T13:28:15.679Z,95308.70
2018-06-03T13:30:44.328Z,95308.68
2018-06-03T13:33:13.079Z,95311.00
2018-06-03T13:35:41.912Z,95324.38
2018-06-03T13:38:10.610Z,95331.65
2018-06-03T13:40:39.297Z,95329.50
2018-06-03T13:43:07.931Z,95334.98
2018-06-03T13:45:36.639Z,95332.91
2018-06-03T13:48:05.359Z,95338.77
2018-06-03T13:50:34.042Z,95224.98
2018-06-03T13:53:02.736Z,95337.54
2018-06-03T13:55:31.441Z,95334.56
2018-06-03T13:58:00.070Z,95330.39
2018-06-03T14:00:28.727Z,95315.77
2018-06-03T14:02:57.336Z,95313.06
2018-06-03T14:05:25.981Z,95308.33
2018-06-03T14:07:54.590Z,95308.09
2018-06-03T14:10:23.312Z,95310.42
2018-06-03T14:12:51.938Z,95297.31
2018-06-03T14:15:20.575Z,95294.68
2018-06-03T14:17:49.264Z,95292.59
2018-06-03T14:20:17.889Z,95284.84
2018-06-03T14:22:46.543Z,95280.81
2018-06-03T14:25:15.206Z,95276.20
2018-06-03T14:27:43.827Z,95281.20
2018-06-03T14:30:12.600Z,95280.55
2018-06-03T14:32:41.263Z,95276.05
2018-06-03T14:35:09.846Z,95272.98
2018-06-03T14:37:38.486Z,95263.73
2018-06-03T14:40:07.116Z,95246.13
2018-06-03T14:42:35.735Z,95248.12
2018-06-03T14:45:04.457Z,95244.37
2018-06-03T14:47:33.074Z,95234.02
2018-06-03T14:50:01.698Z,95231.09
2018-06-03T14:52:30.303Z,95221.52
2018-06-03T14:54:59.194Z,95217.03
2018-06-03T14:57:27.818Z,95213.30
2018-06-03T14:59:56.446Z,95212.66
2018-06-03T15:02:25.109Z,95202.39
2018-06-03T15:04:53.747Z,95194.62
2018-06-03T15:07:22.376Z,95047.33
2018-06-03T15:09:50.946Z,95190.64
2018-06-03T15:12:19.571Z,95186.36
2018-06-03T15:14:48.220Z,95197.07
2018-06-03T15:17:16.902Z,95193.48
2018-06-03T15:19:45.528Z,95197.16
2018-06-03T15:22:14.200Z,95202.83
2018-06-03T15:24:44.108Z,95210.80
2018-06-03T15:27:12.728Z,95214.19
2018-06-03T15:29:41.366Z,95218.68
2018-06-03T15:32:10.032Z,95231.77
2018-06-03T15:34:38.687Z,95234.37
2018-06-03T15:37:07.339Z,95240.50
2018-06-03T15:39:35.990Z,95240.42
2018-06-03T15:42:05.019Z,95237.26
2018-06-03T15:44:36.435Z,95245.45
2018-06-03T15:47:05.167Z,95244.00
2018-06-03T15:49:37.213Z,95243.50
2018-06-03T15:52:05.977Z,95244.73
2018-06-03T15:54:34.618Z,95248.69
2018-06-03T15:57:03.321Z,95251.44
2018-06-03T15:59:32.053Z,95248.91
2018-06-03T16:02:00.687Z,95240.52
2018-06-03T16:04:29.499Z,95242.48
2018-06-03T16:06:58.138Z,95233.87
2018-06-03T16:09:26.774Z,95236.63
2018-06-03T16:11:55.434Z,95239.53
2018-06-03T16:14:24.060Z,95239.96
2018-06-03T16:16:52.715Z,95247.17
2018-06-03T16:19:21.671Z,95248.35
2018-06-03T16:21:50.372Z,95240.30
2018-06-03T16:24:19.723Z,95235.47
2018-06-03T16:26:48.342Z,95227.61
2018-06-03T16:29:17.037Z,95220.12
2018-06-03T16:31:46.121Z,95225.62
2018-06-03T16:34:15.073Z,95226.83
2018-06-03T16:36:43.841Z,95231.26
2018-06-03T16:39:12.603Z,95228.00
2018-06-03T16:41:41.256Z,95250.05
2018-06-03T16:44:10.070Z,95233.36
2018-06-03T16:46:38.763Z,95233.88
2018-06-03T16:49:07.403Z,95231.94
2018-06-03T16:51:35.996Z,95241.70
2018-06-03T16:54:04.733Z,95251.11
2018-06-03T16:56:33.700Z,95254.25
2018-06-03T16:59:02.336Z,95250.50
2018-06-03T17:01:31.016Z,95262.74
2018-06-03T17:03:59.746Z,95267.50
2018-06-03T17:06:28.423Z,95271.50
2018-06-03T17:08:57.054Z,95274.20
2018-06-03T17:11:25.815Z,95266.00
2018-06-03T17:13:54.743Z,95268.95
2018-06-03T17:16:24.948Z,95278.36
2018-06-03T17:18:55.528Z,95275.44
2018-06-03T17:21:24.918Z,95270.39
2018-06-03T17:23:54.935Z,95263.77
2018-06-03T17:26:24.011Z,95267.11
2018-06-03T17:28:54.137Z,95261.86
2018-06-03T17:31:22.939Z,95262.08
2018-06-03T17:33:51.704Z,94836.09
2018-06-03T17:36:20.501Z,95253.68
2018-06-03T17:38:49.275Z,95263.88
2018-06-03T17:41:19.141Z,95258.79
2018-06-03T17:43:48.078Z,95263.13
2018-06-03T17:46:16.770Z,95265.25
2018-06-03T17:48:45.488Z,95251.77
2018-06-03T17:51:15.046Z,95251.36
2018-06-03T17:53:44.334Z,95255.73
2018-06-03T17:56:13.309Z,95254.52
2018-06-03T17:58:42.312Z,95251.98
2018-06-03T18:01:11.319Z,95257.69
2018-06-03T18:03:40.288Z,95259.69
2018-06-03T18:06:09.351Z,95259.48
2018-06-03T18:08:38.005Z,95256.53
2018-06-03T18:11:07.459Z,95256.36
2018-06-03T18:13:36.746Z,95253.45
2018-06-03T18:16:06.012Z,95244.27
2018-06-03T18:18:34.728Z,95244.44
2018-06-03T18:21:03.369Z,95241.31
2018-06-03T18:23:32.004Z,95237.58
2018-06-03T18:26:00.620Z,95235.03
2018-06-03T18:28:29.252Z,95224.27
2018-06-03T18:30:57.900Z,95224.48
2018-06-03T18:33:26.516Z,95224.52
2018-06-03T18:35:55.187Z,95218.62
2018-06-03T18:38:24.754Z,95221.41
2018-06-03T18:40:53.377Z,95219.88
2018-06-03T18:43:22.046Z,95214.98
2018-06-03T18:45:50.645Z,95215.96
2018-06-03T18:48:19.580Z,95209.90
2018-06-03T18:50:48.211Z,95208.98
2018-06-03T18:53:16.877Z,95212.94
2018-06-03T18:55:46.486Z,95213.35
2018-06-03T18:58:15.290Z,95211.78
2018-06-03T19:00:43.913Z,95221.39
2018-06-03T19:03:12.543Z,95231.20
2018-06-03T19:05:41.168Z,95227.53
2018-06-03T19:08:09.798Z,95235.93
2018-06-03T19:10:38.466Z,95243.98
2018-06-03T19:13:07.176Z,95245.97
2018-06-03T19:15:44.437Z,95245.97
2018-06-03T19:18:13.471Z,95250.92
2018-06-03T19:20:42.120Z,95247.57
2018-06-03T19:23:10.732Z,95256.41
2018-06-03T19:25:39.456Z,95251.16
2018-06-03T19:28:08.067Z,95264.06
2018-06-03T19:30:37.324Z,95259.98
2018-06-03T19:33:06.051Z,95266.86
2018-06-03T19:35:34.796Z,95264.52
2018-06-03T19:38:03.456Z,95269.80
2018-06-03T19:40:32.111Z,95261.00
2018-06-03T19:43:00.831Z,95270.78
2018-06-03T19:45:29.480Z,95273.55
2018-06-03T19:47:58.127Z,95282.14
2018-06-03T19:50:26.899Z,95280.96
2018-06-03T19:52:55.584Z,95287.03
2018-06-03T19:55:24.727Z,95281.94
2018-06-03T19:57:53.362Z,95283.89
2018-06-03T20:00:25.924Z,95285.84
2018-06-03T20:02:54.673Z,95287.59
2018-06-03T20:05:23.295Z,95278.39
2018-06-03T20:07:51.923Z,95282.70
2018-06-03T20:10:20.678Z,95274.45
2018-06-03T20:12:49.275Z,95293.88
2018-06-03T20:15:18.160Z,95297.00
2018-06-03T20:17:47.127Z,95293.86
2018-06-03T20:20:15.823Z,95288.80
2018-06-03T20:22:44.439Z,95289.56
2018-06-03T20:25:13.081Z,95292.10
2018-06-03T20:27:41.945Z,95299.34
2018-06-03T20:30:10.664Z,95295.05
2018-06-03T20:32:39.655Z,95297.59
2018-06-03T20:35:08.580Z,95307.00
2018-06-03T20:37:37.245Z,95307.74
2018-06-03T20:40:05.924Z,95309.52
2018-06-03T20:42:34.618Z,95308.16
2018-06-03T20:45:03.229Z,95305.02
2018-06-03T20:47:32.134Z,95310.29
2018-06-03T20:50:01.318Z,95311.29
2018-06-03T20:52:29.986Z,95318.91
2018-06-03T20:54:58.679Z,95314.59
2018-06-03T20:57:27.334Z,95318.33
2018-06-03T20:59:56.004Z,95316.95
2018-06-03T21:02:24.883Z,95309.70
2018-06-03T21:04:53.521Z,95312.25
2018-06-03T21:07:22.151Z,95305.02
2018-06-03T21:09:50.842Z,95296.21
2018-06-03T21:12:19.488Z,95280.77
2018-06-03T21:14:48.132Z,95287.22
2018-06-03T21:17:17.281Z,95297.41
2018-06-03T21:19:45.917Z,95294.84
2018-06-03T21:22:14.556Z,95288.79
2018-06-03T21:24:43.209Z,95285.83
2018-06-03T21:27:11.872Z,95288.56
2018-06-03T21:29:40.821Z,95280.58
2018-06-03T21:32:09.561Z,95276.66
2018-06-03T21:34:38.218Z,95276.27
2018-06-03T21:37:06.862Z,95212.11
2018-06-03T21:39:35.565Z,95201.73
2018-06-03T21:42:04.267Z,95270.80
2018-06-03T21:44:33.004Z,95262.20
2018-06-03T21:47:01.672Z,95256.70
2018-06-03T21:49:30.334Z,95267.28
2018-06-03T21:51:59.052Z,95266.11
2018-06-03T21:54:27.777Z,95254.37
2018-06-03T21:56:56.463Z,95255.91
2018-06-03T21:59:25.100Z,95255.91
2018-06-03T22:01:53.834Z,95255.14
2018-06-03T22:04:22.526Z,95245.77
2018-06-03T22:06:51.175Z,95253.17
2018-06-03T22:09:19.887Z,95253.56
2018-06-03T22:11:48.983Z,95264.51
2018-06-03T22:14:17.592Z,95255.52
2018-06-03T22:16:46.226Z,95254.74
2018-06-03T22:19:15.251Z,95253.16
2018-06-03T22:21:43.953Z,95263.14
2018-06-03T22:24:12.623Z,95255.91
2018-06-03T22:26:41.228Z,95253.18
2018-06-03T22:29:09.907Z,95258.45
2018-06-03T22:31:38.531Z,95251.78
2018-06-03T22:34:07.150Z,95256.11
2018-06-03T22:36:35.786Z,95257.48
2018-06-03T22:39:06.420Z,95253.34
2018-06-03T22:41:35.042Z,95250.81
2018-06-03T22:44:03.734Z,95253.11
2018-06-03T22:46:32.327Z,95256.48
2018-06-03T22:49:00.995Z,95253.36
2018-06-03T22:51:29.665Z,95256.11
2018-06-03T22:53:59.558Z,95258.44
2018-06-03T22:56:39.878Z,95251.80
2018-06-03T22:59:12.060Z,95248.87
2018-06-03T23:01:46.914Z,95243.16
2018-06-03T23:04:20.543Z,95245.52
2018-06-03T23:06:52.706Z,95238.11
2018-06-03T23:09:21.311Z,95239.61
2018-06-03T23:11:50.303Z,95236.64
2018-06-03T23:14:20.314Z,95233.30
2018-06-03T23:16:49.013Z,95233.71
2018-06-03T23:19:17.947Z,95228.84
2018-06-03T23:21:46.570Z,95229.06
2018-06-03T23:24:15.301Z,95225.34
2018-06-03T23:26:43.959Z,95198.72
2018-06-03T23:29:12.669Z,95219.51
2018-06-03T23:31:41.285Z,95226.71
2018-06-03T23:34:09.940Z,95220.63
2018-06-03T23:36:38.578Z,95217.71
2018-06-03T23:39:07.874Z,95218.05
2018-06-03T23:41:36.494Z,95217.47
2018-06-03T23:44:05.179Z,95215.87
2018-06-03T23:46:33.783Z,95214.48
2018-06-03T23:49:02.511Z,95216.61
2018-06-03T23:51:31.952Z,95216.73
2018-06-03T23:54:00.583Z,95222.32
2018-06-03T23:56:29.225Z,95217.92
2018-06-03T23:58:57.807Z,95215.64
